Olten, Switzerland
Current Conditions -  °F | °C
As of 5:30 PM on Thursday 23 Oct 2014 (Local Time) from LFSB Reporting Station
Few Clouds Few Clouds  
Wind Chill: 55°   Ceiling: Unl
Heat Index: 55°   Visibility: 6mi
Dew Point: 34°   Wind: 0mph
Humidity: 44%   Direction: NA
Pressure: 30.24"   Gusts: NA
Location:  47.37°N, 7.9°E
Report Text: LFSB 231530Z 00000KT 9999 FEW040 13/01 Q1024 NOSIG
Loading
Personal Weather Stations






























Interactive Weather Map
Tropical Storm Tracking
New forecast layout! Learn more

10-Day Weather Forecast

Advertisements
Track Severe Weather on mobile